createdAt,value
2022-10-01T00:02:26.005Z,100.00
2022-10-01T00:04:53.822Z,100.00
2022-10-01T00:07:45.743Z,100.00
2022-10-01T00:10:15.341Z,100.00
2022-10-01T00:12:59.329Z,100.00
2022-10-01T00:15:40.867Z,100.00
2022-10-01T00:18:14.065Z,100.00
2022-10-01T00:20:43.712Z,100.00
2022-10-01T00:23:13.504Z,100.00
2022-10-01T00:25:42.105Z,100.00
2022-10-01T00:28:10.902Z,100.00
2022-10-01T00:30:40.539Z,100.00
2022-10-01T00:33:08.456Z,100.00
2022-10-01T00:35:37.492Z,100.00
2022-10-01T00:38:05.250Z,100.00
2022-10-01T00:40:33.040Z,100.00
2022-10-01T00:43:00.842Z,100.00
2022-10-01T00:45:29.857Z,100.00
2022-10-01T00:48:00.577Z,100.00
2022-10-01T00:50:35.845Z,100.00
2022-10-01T00:53:09.076Z,100.00
2022-10-01T00:55:43.602Z,100.00
2022-10-01T00:58:14.533Z,100.00
2022-10-01T01:00:43.339Z,100.00
2022-10-01T01:03:12.603Z,100.00
2022-10-01T01:05:40.604Z,100.00
2022-10-01T01:08:09.784Z,100.00
2022-10-01T01:11:01.415Z,100.00
2022-10-01T01:13:38.460Z,100.00
2022-10-01T01:16:34.574Z,100.00
2022-10-01T01:19:10.653Z,100.00
2022-10-01T01:21:45.715Z,100.00
2022-10-01T01:24:44.113Z,100.00
2022-10-01T01:27:31.186Z,100.00
2022-10-01T01:30:08.574Z,100.00
2022-10-01T01:33:04.809Z,100.00
2022-10-01T01:35:39.609Z,100.00
2022-10-01T01:38:22.109Z,100.00
2022-10-01T01:40:52.113Z,100.00
2022-10-01T01:43:25.253Z,100.00
2022-10-01T01:45:56.775Z,100.00
2022-10-01T01:48:25.156Z,100.00
2022-10-01T01:51:24.988Z,100.00
2022-10-01T01:53:54.334Z,100.00
2022-10-01T01:56:22.353Z,100.00
2022-10-01T01:58:51.319Z,100.00
2022-10-01T02:01:51.569Z,100.00
2022-10-01T02:04:28.503Z,100.00
2022-10-01T02:07:11.448Z,100.00
2022-10-01T02:09:47.269Z,100.00
2022-10-01T02:12:42.640Z,100.00
2022-10-01T02:15:20.867Z,100.00
2022-10-01T02:18:06.633Z,100.00
2022-10-01T02:20:42.590Z,100.00
2022-10-01T02:23:17.336Z,100.00
2022-10-01T02:25:51.535Z,100.00
2022-10-01T02:28:23.023Z,100.00
2022-10-01T02:30:54.243Z,100.00
2022-10-01T02:33:27.941Z,100.00
2022-10-01T02:35:58.701Z,100.00
2022-10-01T02:38:27.150Z,100.00
2022-10-01T02:40:58.957Z,100.00
2022-10-01T02:43:34.011Z,100.00
2022-10-01T02:46:18.524Z,100.00
2022-10-01T02:48:47.229Z,100.00
2022-10-01T02:51:43.574Z,100.00
2022-10-01T02:54:23.124Z,100.00
2022-10-01T02:57:11.781Z,100.00
2022-10-01T02:59:42.954Z,100.00
2022-10-01T03:02:11.461Z,100.00
2022-10-01T03:04:39.341Z,100.00
2022-10-01T03:07:07.263Z,100.00
2022-10-01T03:09:36.889Z,100.00
2022-10-01T03:12:06.671Z,100.00
2022-10-01T03:14:34.574Z,100.00
2022-10-01T03:17:02.365Z,100.00
2022-10-01T03:19:30.124Z,100.00
2022-10-01T03:21:57.950Z,100.00
2022-10-01T03:24:26.020Z,100.00
2022-10-01T03:26:55.909Z,100.00
2022-10-01T03:29:27.207Z,100.00
2022-10-01T03:31:55.307Z,100.00
2022-10-01T03:34:24.357Z,100.00
2022-10-01T03:36:52.907Z,100.00
2022-10-01T03:39:20.967Z,100.00
2022-10-01T03:41:48.923Z,100.00
2022-10-01T03:44:16.954Z,100.00
2022-10-01T03:46:44.955Z,100.00
2022-10-01T03:49:12.792Z,100.00
2022-10-01T03:51:40.660Z,100.00
2022-10-01T03:54:09.267Z,100.00
2022-10-01T03:56:37.900Z,100.00
2022-10-01T03:59:05.834Z,100.00
2022-10-01T04:01:33.838Z,100.00
2022-10-01T04:04:02.224Z,100.00
2022-10-01T04:06:33.240Z,100.00
2022-10-01T04:09:02.180Z,100.00
2022-10-01T04:11:30.394Z,100.00
2022-10-01T04:13:58.343Z,100.00
2022-10-01T04:16:26.198Z,100.00
2022-10-01T04:18:54.176Z,100.00
2022-10-01T04:21:22.004Z,100.00
2022-10-01T04:23:51.167Z,100.00
2022-10-01T04:26:19.324Z,100.00
2022-10-01T04:28:47.729Z,100.00
2022-10-01T04:31:24.896Z,100.00
2022-10-01T04:33:55.123Z,100.00
2022-10-01T04:36:24.505Z,100.00
2022-10-01T04:38:57.982Z,100.00
2022-10-01T04:41:31.116Z,100.00
2022-10-01T04:44:00.340Z,100.00
2022-10-01T04:46:31.407Z,100.00
2022-10-01T04:48:59.373Z,100.00
2022-10-01T04:51:30.192Z,100.00
2022-10-01T04:53:58.051Z,100.00
2022-10-01T04:56:26.166Z,100.00
2022-10-01T04:58:54.008Z,100.00
2022-10-01T05:01:22.240Z,100.00
2022-10-01T05:03:50.211Z,100.00
2022-10-01T05:06:20.935Z,100.00
2022-10-01T05:08:50.176Z,100.00
2022-10-01T05:11:19.039Z,100.00
2022-10-01T05:13:46.840Z,100.00
2022-10-01T05:16:14.751Z,100.00
2022-10-01T05:18:43.561Z,100.00
2022-10-01T05:21:11.952Z,100.00
2022-10-01T05:23:39.760Z,100.00
2022-10-01T05:26:08.199Z,100.00
2022-10-01T05:28:36.883Z,100.00
2022-10-01T05:31:05.043Z,100.00
2022-10-01T05:33:34.342Z,100.00
2022-10-01T05:36:03.683Z,100.00
2022-10-01T05:38:31.486Z,100.00
2022-10-01T05:40:59.270Z,100.00
2022-10-01T05:43:27.396Z,100.00
2022-10-01T05:45:55.500Z,100.00
2022-10-01T05:48:23.415Z,100.00
2022-10-01T05:50:51.907Z,100.00
2022-10-01T05:53:19.681Z,100.00
2022-10-01T05:55:47.537Z,100.00
2022-10-01T05:58:16.541Z,100.00
2022-10-01T06:00:44.456Z,100.00
2022-10-01T06:03:13.202Z,100.00
2022-10-01T06:05:44.217Z,100.00
2022-10-01T06:08:12.260Z,100.00
2022-10-01T06:10:40.468Z,100.00
2022-10-01T06:13:08.408Z,100.00
2022-10-01T06:15:38.280Z,100.00
2022-10-01T06:18:09.212Z,100.00
2022-10-01T06:20:38.492Z,99.27
2022-10-01T06:23:12.658Z,98.46
2022-10-01T06:25:42.089Z,97.84
2022-10-01T06:28:12.113Z,97.19
2022-10-01T06:30:40.401Z,95.47
2022-10-01T06:33:11.372Z,95.12
2022-10-01T06:35:49.789Z,95.05
2022-10-01T06:38:22.805Z,93.52
2022-10-01T06:40:58.856Z,94.06
2022-10-01T06:43:28.915Z,93.27
2022-10-01T06:45:57.097Z,91.94
2022-10-01T06:48:24.995Z,91.37
2022-10-01T06:50:53.251Z,91.38
2022-10-01T06:53:21.069Z,91.70
2022-10-01T06:55:50.112Z,90.87
2022-10-01T06:58:21.126Z,90.09
2022-10-01T07:00:50.147Z,89.04
2022-10-01T07:03:20.960Z,89.52
2022-10-01T07:05:50.401Z,89.45
2022-10-01T07:08:18.567Z,88.99
2022-10-01T07:10:47.379Z,86.47
2022-10-01T07:13:17.690Z,86.73
2022-10-01T07:15:46.122Z,86.08
2022-10-01T07:18:14.638Z,87.79
2022-10-01T07:20:42.460Z,88.06
2022-10-01T07:23:14.976Z,87.02
2022-10-01T07:25:43.939Z,87.54
2022-10-01T07:28:19.875Z,87.30
2022-10-01T07:31:07.375Z,87.18
2022-10-01T07:33:35.222Z,87.52
2022-10-01T07:36:06.722Z,86.25
2022-10-01T07:38:35.304Z,85.32
2022-10-01T07:41:03.775Z,85.48
2022-10-01T07:43:33.525Z,82.82
2022-10-01T07:46:02.976Z,82.47
2022-10-01T07:48:31.275Z,81.70
2022-10-01T07:50:59.074Z,80.65
2022-10-01T07:53:27.735Z,81.57
2022-10-01T07:55:55.555Z,80.45
2022-10-01T07:58:24.333Z,80.20
2022-10-01T08:00:57.185Z,80.04
2022-10-01T08:03:25.656Z,78.54
2022-10-01T08:05:54.400Z,77.30
2022-10-01T08:08:23.883Z,76.00
2022-10-01T08:10:55.699Z,74.81
2022-10-01T08:13:25.751Z,74.79
2022-10-01T08:15:54.909Z,76.21
2022-10-01T08:18:25.560Z,78.08
2022-10-01T08:20:53.642Z,76.53
2022-10-01T08:23:21.985Z,77.50
2022-10-01T08:25:50.071Z,76.59
2022-10-01T08:28:18.449Z,76.03
2022-10-01T08:30:46.419Z,75.45
2022-10-01T08:33:14.692Z,74.71
2022-10-01T08:35:46.379Z,73.09
2022-10-01T08:38:14.761Z,73.49
2022-10-01T08:40:49.416Z,72.98
2022-10-01T08:43:32.811Z,74.73
2022-10-01T08:46:23.123Z,77.47
2022-10-01T08:49:22.540Z,76.30
2022-10-01T08:52:03.674Z,76.19
2022-10-01T08:54:36.886Z,76.56
2022-10-01T08:57:12.508Z,75.50
2022-10-01T08:59:42.488Z,73.03
2022-10-01T09:02:24.164Z,73.74
2022-10-01T09:05:01.445Z,72.85
2022-10-01T09:07:41.890Z,71.92
2022-10-01T09:10:36.698Z,71.89
2022-10-01T09:13:23.008Z,71.52
2022-10-01T09:16:23.099Z,71.94
2022-10-01T09:18:59.265Z,71.83
2022-10-01T09:21:44.639Z,72.62
2022-10-01T09:24:22.512Z,72.96
2022-10-01T09:26:50.607Z,71.14
2022-10-01T09:29:27.714Z,72.10
2022-10-01T09:31:57.368Z,71.76
2022-10-01T09:34:34.703Z,71.83
2022-10-01T09:37:14.993Z,72.94
2022-10-01T09:39:51.431Z,72.72
2022-10-01T09:42:20.858Z,71.19
2022-10-01T09:44:49.962Z,69.67
2022-10-01T09:47:21.999Z,69.73
2022-10-01T09:49:51.396Z,69.96
2022-10-01T09:52:28.627Z,70.93
2022-10-01T09:55:02.800Z,71.67
2022-10-01T09:57:39.541Z,69.83
2022-10-01T10:00:18.482Z,69.60
2022-10-01T10:02:54.677Z,70.29
2022-10-01T10:05:27.783Z,69.96
2022-10-01T10:08:03.977Z,67.45
2022-10-01T10:10:35.919Z,66.71
2022-10-01T10:13:10.887Z,66.16
2022-10-01T10:15:49.652Z,66.54
2022-10-01T10:18:28.265Z,65.51
2022-10-01T10:20:59.300Z,65.93
2022-10-01T10:23:29.462Z,64.35
2022-10-01T10:26:03.114Z,63.32
2022-10-01T10:31:39.996Z,63.13
2022-10-01T10:34:32.726Z,63.36
2022-10-01T10:37:09.037Z,62.24
2022-10-01T10:39:41.531Z,61.63
2022-10-01T10:42:15.830Z,61.92
2022-10-01T10:44:47.835Z,63.47
2022-10-01T10:47:18.891Z,63.17
2022-10-01T10:50:39.579Z,63.18
2022-10-01T10:53:25.123Z,62.51
2022-10-01T10:56:05.390Z,61.07
2022-10-01T10:58:40.533Z,59.42
2022-10-01T11:01:13.868Z,60.96
2022-10-01T11:03:56.296Z,61.12
2022-10-01T11:06:24.611Z,59.99
2022-10-01T11:09:07.360Z,59.90
2022-10-01T11:11:57.790Z,60.26
2022-10-01T11:14:35.514Z,56.74
2022-10-01T11:17:34.551Z,57.98
2022-10-01T11:20:32.566Z,58.13
2022-10-01T11:23:27.726Z,59.47
2022-10-01T11:25:58.821Z,59.75
2022-10-01T11:28:33.311Z,60.27
2022-10-01T11:31:17.690Z,59.33
2022-10-01T11:34:11.392Z,59.00
2022-10-01T11:37:00.466Z,59.24
2022-10-01T11:39:32.782Z,60.17
2022-10-01T11:42:10.590Z,57.98
2022-10-01T11:45:03.382Z,56.04
2022-10-01T11:47:44.450Z,56.04
2022-10-01T11:50:20.586Z,55.98
2022-10-01T11:53:09.030Z,54.07
2022-10-01T11:56:12.667Z,55.87
2022-10-01T11:59:02.576Z,54.82
2022-10-01T12:01:42.505Z,55.98
2022-10-01T12:04:16.761Z,55.29
2022-10-01T12:07:01.895Z,54.66
2022-10-01T12:09:53.288Z,55.20
2022-10-01T12:12:31.513Z,55.24
2022-10-01T12:15:17.112Z,54.76
2022-10-01T12:18:14.585Z,54.08
2022-10-01T12:20:51.971Z,53.04
2022-10-01T12:23:30.090Z,53.89
2022-10-01T12:26:13.500Z,53.76
2022-10-01T12:28:55.583Z,53.65
2022-10-01T12:31:38.215Z,54.29
2022-10-01T12:34:14.536Z,53.49
2022-10-01T12:36:58.229Z,53.44
2022-10-01T12:40:10.439Z,54.67
2022-10-01T12:42:59.890Z,54.36
2022-10-01T12:46:18.681Z,53.76
2022-10-01T12:49:15.933Z,54.08
2022-10-01T12:51:56.166Z,53.35
2022-10-01T12:55:22.586Z,50.16
2022-10-01T12:58:01.427Z,51.28
2022-10-01T13:00:42.433Z,52.24
2022-10-01T13:03:10.911Z,50.41
2022-10-01T13:05:57.781Z,49.80
2022-10-01T13:08:35.011Z,49.14
2022-10-01T13:11:10.029Z,48.60
2022-10-01T13:13:41.086Z,48.01
2022-10-01T13:16:09.771Z,49.76
2022-10-01T13:19:04.841Z,48.55
2022-10-01T13:22:08.708Z,48.78
2022-10-01T13:25:08.729Z,48.83
2022-10-01T13:27:51.905Z,49.69
2022-10-01T13:30:24.228Z,48.38
2022-10-01T13:32:57.974Z,49.20
2022-10-01T13:35:35.572Z,48.30
2022-10-01T13:38:29.300Z,48.84
2022-10-01T13:41:01.592Z,49.05
2022-10-01T13:43:32.160Z,49.62
2022-10-01T13:46:10.520Z,50.03
2022-10-01T13:48:49.532Z,49.51
2022-10-01T13:51:17.848Z,49.18
2022-10-01T13:53:50.164Z,48.01
2022-10-01T13:56:35.561Z,49.19
2022-10-01T13:59:20.876Z,48.20
2022-10-01T14:01:49.235Z,47.71
2022-10-01T14:04:44.316Z,48.96
2022-10-01T14:07:26.894Z,47.61
2022-10-01T14:09:59.555Z,45.60
2022-10-01T14:13:17.322Z,46.90
2022-10-01T14:15:59.990Z,46.59
2022-10-01T14:18:38.267Z,47.66
2022-10-01T14:21:26.070Z,47.89
2022-10-01T14:24:07.006Z,48.19
2022-10-01T14:26:58.573Z,48.10
2022-10-01T14:29:38.068Z,49.00
2022-10-01T14:32:34.183Z,48.51
2022-10-01T14:35:05.546Z,48.23
2022-10-01T14:37:39.607Z,49.05
2022-10-01T14:40:21.886Z,49.26
2022-10-01T14:43:15.398Z,47.95
2022-10-01T14:46:16.846Z,48.03
2022-10-01T14:48:57.366Z,50.33
2022-10-01T14:51:31.249Z,49.37
2022-10-01T14:54:00.901Z,50.21
2022-10-01T14:56:29.602Z,49.82
2022-10-01T14:59:03.424Z,49.88
2022-10-01T15:01:31.708Z,51.51
2022-10-01T15:04:00.022Z,51.25
2022-10-01T15:06:30.158Z,50.76
2022-10-01T15:09:18.729Z,51.20
2022-10-01T15:11:51.947Z,52.11
2022-10-01T15:14:24.500Z,51.86
2022-10-01T15:17:08.170Z,52.06
2022-10-01T15:19:45.449Z,51.65
2022-10-01T15:22:17.749Z,53.10
2022-10-01T15:24:49.726Z,50.99
2022-10-01T15:27:20.371Z,51.59
2022-10-01T15:29:56.245Z,53.07
2022-10-01T15:32:28.513Z,52.44
2022-10-01T15:35:01.571Z,52.23
2022-10-01T15:37:34.550Z,52.90
2022-10-01T15:40:09.917Z,52.58
2022-10-01T15:42:38.222Z,52.99
2022-10-01T15:45:09.507Z,52.94
2022-10-01T15:47:40.144Z,51.91
2022-10-01T15:50:11.649Z,51.86
2022-10-01T15:52:50.980Z,52.59
2022-10-01T15:55:46.175Z,52.46
2022-10-01T15:58:21.682Z,54.21
2022-10-01T16:01:01.832Z,53.54
2022-10-01T16:03:34.438Z,52.87
2022-10-01T16:06:08.568Z,53.25
2022-10-01T16:09:06.179Z,54.23
2022-10-01T16:12:19.750Z,53.25
2022-10-01T16:15:00.837Z,53.28
2022-10-01T16:17:37.172Z,55.13
2022-10-01T16:20:14.717Z,54.40
2022-10-01T16:22:44.856Z,56.08
2022-10-01T16:25:19.744Z,55.62
2022-10-01T16:28:32.732Z,55.29
2022-10-01T16:31:01.496Z,55.24
2022-10-01T16:33:29.628Z,56.70
2022-10-01T16:36:11.205Z,56.28
2022-10-01T16:38:39.860Z,57.24
2022-10-01T16:41:09.905Z,56.83
2022-10-01T16:43:39.471Z,57.52
2022-10-01T17:32:30.366Z,62.84
2022-10-01T17:34:59.325Z,63.95
2022-10-01T17:37:27.503Z,65.26
2022-10-01T17:39:55.794Z,64.29
2022-10-01T17:42:24.178Z,66.16
2022-10-01T17:44:52.558Z,66.51
2022-10-01T17:47:23.253Z,66.11
2022-10-01T17:49:51.429Z,65.76
2022-10-01T17:52:19.816Z,66.62
2022-10-01T17:54:47.955Z,65.90
2022-10-01T17:57:16.125Z,66.25
2022-10-01T17:59:44.095Z,66.56
2022-10-01T18:02:36.655Z,67.96
2022-10-01T18:05:04.633Z,67.70
2022-10-01T18:07:32.281Z,68.74
2022-10-01T18:10:01.164Z,68.63
2022-10-01T18:12:29.219Z,69.31
2022-10-01T18:14:56.805Z,69.02
2022-10-01T18:17:24.624Z,69.60
2022-10-01T18:19:54.364Z,69.44
2022-10-01T18:22:22.120Z,69.90
2022-10-01T18:24:49.868Z,69.42
2022-10-01T18:27:17.903Z,69.41
2022-10-01T18:29:45.547Z,69.28
2022-10-01T18:32:31.428Z,69.33
2022-10-01T18:35:02.252Z,69.53
2022-10-01T18:37:52.386Z,68.97
2022-10-01T18:40:30.596Z,67.67
2022-10-01T18:43:01.635Z,68.74
2022-10-01T18:45:46.697Z,68.30
2022-10-01T18:48:33.088Z,68.00
2022-10-01T18:51:21.448Z,67.87
2022-10-01T18:54:11.529Z,68.33
2022-10-01T18:57:10.762Z,68.94
2022-10-01T18:59:46.639Z,67.63
2022-10-01T19:02:49.445Z,68.22
2022-10-01T19:05:30.133Z,68.10
2022-10-01T19:08:23.664Z,68.52
2022-10-01T19:11:18.153Z,67.44
2022-10-01T19:13:55.419Z,68.27
2022-10-01T19:16:22.999Z,67.88
2022-10-01T19:19:14.623Z,68.00
2022-10-01T19:22:15.137Z,68.74
2022-10-01T19:25:08.849Z,68.77
2022-10-01T19:28:02.293Z,68.43
2022-10-01T19:30:42.009Z,68.41
2022-10-01T19:33:11.392Z,68.67
2022-10-01T19:35:48.488Z,68.70
2022-10-01T19:38:27.004Z,68.71
2022-10-01T19:41:03.658Z,68.76
2022-10-01T19:43:48.041Z,69.54
2022-10-01T19:46:29.440Z,70.99
2022-10-01T19:49:13.376Z,71.16
2022-10-01T19:51:51.631Z,72.34
2022-10-01T19:54:24.714Z,73.37
2022-10-01T19:56:55.354Z,73.34
2022-10-01T19:59:23.181Z,73.53
2022-10-01T20:02:03.210Z,73.75
2022-10-01T20:04:38.403Z,75.84
2022-10-01T20:07:12.245Z,75.40
2022-10-01T20:09:47.468Z,75.81
2022-10-01T20:12:24.151Z,75.86
2022-10-01T20:15:11.641Z,77.25
2022-10-01T20:18:03.901Z,76.26
2022-10-01T20:20:43.716Z,77.78
2022-10-01T20:23:27.494Z,76.50
2022-10-01T20:26:20.340Z,77.02
2022-10-01T20:29:19.310Z,76.36
2022-10-01T20:32:00.318Z,76.61
2022-10-01T20:34:46.171Z,76.82
2022-10-01T20:37:22.729Z,77.21
2022-10-01T20:40:02.926Z,78.12
2022-10-01T20:42:38.582Z,77.24
2022-10-01T20:45:16.952Z,78.18
2022-10-01T20:47:52.257Z,78.13
2022-10-01T20:50:25.589Z,77.84
2022-10-01T20:53:08.678Z,77.04
2022-10-01T20:55:48.161Z,77.90
2022-10-01T20:58:36.200Z,76.99
2022-10-01T21:01:10.435Z,77.16
2022-10-01T21:03:49.425Z,78.91
2022-10-01T21:06:26.695Z,77.59
2022-10-01T21:09:03.878Z,79.65
2022-10-01T21:11:34.807Z,77.89
2022-10-01T21:14:14.681Z,77.46
2022-10-01T21:16:54.438Z,77.16
2022-10-01T21:20:04.639Z,77.29
2022-10-01T21:23:14.856Z,78.08
2022-10-01T21:25:57.135Z,77.39
2022-10-01T21:28:46.136Z,77.66
2022-10-01T21:31:51.236Z,77.34
2022-10-01T21:34:19.158Z,79.15
2022-10-01T21:37:12.684Z,78.59
2022-10-01T21:40:12.779Z,79.35
2022-10-01T21:42:56.729Z,80.24
2022-10-01T21:45:46.095Z,80.87
2022-10-01T21:48:32.145Z,80.59
2022-10-01T21:51:38.945Z,81.03
2022-10-01T21:54:30.501Z,80.64
2022-10-01T21:57:43.500Z,81.50
2022-10-01T22:00:20.704Z,81.90
2022-10-01T22:02:53.731Z,82.01
2022-10-01T22:05:39.277Z,82.26
2022-10-01T22:08:21.948Z,82.15
2022-10-01T22:10:58.841Z,82.65
2022-10-01T22:13:33.432Z,82.62
2022-10-01T22:16:07.405Z,81.84
2022-10-01T22:18:47.364Z,81.48
2022-10-01T22:21:25.188Z,82.31
2022-10-01T22:24:03.961Z,83.16
2022-10-01T22:26:37.821Z,83.08
2022-10-01T22:29:07.887Z,83.55
2022-10-01T22:31:38.062Z,84.08
2022-10-01T22:34:12.680Z,84.18
2022-10-01T22:36:52.950Z,85.18
2022-10-01T22:39:30.834Z,86.86
2022-10-01T22:42:27.189Z,85.19
2022-10-01T22:44:56.197Z,85.83
2022-10-01T22:47:42.581Z,85.28
2022-10-01T22:50:10.321Z,85.43
2022-10-01T22:52:39.345Z,86.27
2022-10-01T22:55:30.823Z,85.34
2022-10-01T22:58:22.901Z,84.90
2022-10-01T23:00:56.422Z,85.13
2022-10-01T23:03:51.748Z,84.62
2022-10-01T23:06:55.785Z,83.94
2022-10-01T23:09:49.697Z,84.31
2022-10-01T23:12:37.385Z,84.99
2022-10-01T23:15:10.956Z,84.96
2022-10-01T23:17:51.968Z,84.92
2022-10-01T23:20:31.697Z,85.10
2022-10-01T23:23:24.307Z,85.15
2022-10-01T23:26:16.637Z,84.94
2022-10-01T23:28:46.968Z,85.12
2022-10-01T23:31:38.967Z,85.25
2022-10-01T23:34:36.189Z,85.20
2022-10-01T23:37:19.116Z,86.57
2022-10-01T23:40:00.249Z,87.02
2022-10-01T23:42:35.813Z,87.61
2022-10-01T23:45:38.599Z,88.26
2022-10-01T23:48:10.885Z,89.03
2022-10-01T23:50:44.655Z,91.02
2022-10-01T23:53:17.424Z,88.40
2022-10-01T23:56:09.526Z,88.62
2022-10-01T23:58:50.820Z,89.94
